sensor_id;sensor_type;location;lat;lon;timestamp;pressure;altitude;pressure_sealevel;temperature
11792;BMP180;5953;52.372;9.918;2023-10-13T00:01:56;100458.00;;;20.20
11792;BMP180;5953;52.372;9.918;2023-10-13T00:04:27;100453.00;;;20.20
11792;BMP180;5953;52.372;9.918;2023-10-13T00:06:55;100452.00;;;20.20
11792;BMP180;5953;52.372;9.918;2023-10-13T00:09:24;100455.00;;;20.20
11792;BMP180;5953;52.372;9.918;2023-10-13T00:11:53;100461.00;;;20.20
11792;BMP180;5953;52.372;9.918;2023-10-13T00:14:22;100449.00;;;20.10
11792;BMP180;5953;52.372;9.918;2023-10-13T00:16:59;100461.00;;;20.00
11792;BMP180;5953;52.372;9.918;2023-10-13T00:19:33;100455.00;;;20.10
11792;BMP180;5953;52.372;9.918;2023-10-13T00:22:07;100465.00;;;20.20
11792;BMP180;5953;52.372;9.918;2023-10-13T00:24:40;100452.00;;;20.30
11792;BMP180;5953;52.372;9.918;2023-10-13T00:27:14;100450.00;;;20.30
11792;BMP180;5953;52.372;9.918;2023-10-13T00:30:04;100450.00;;;20.30
11792;BMP180;5953;52.372;9.918;2023-10-13T00:32:49;100445.00;;;20.40
11792;BMP180;5953;52.372;9.918;2023-10-13T00:35:23;100442.00;;;20.40
11792;BMP180;5953;52.372;9.918;2023-10-13T00:38:03;100439.00;;;20.50
11792;BMP180;5953;52.372;9.918;2023-10-13T00:40:40;100443.00;;;20.50
11792;BMP180;5953;52.372;9.918;2023-10-13T00:43:18;100450.00;;;20.50
11792;BMP180;5953;52.372;9.918;2023-10-13T00:46:02;100444.00;;;20.50
11792;BMP180;5953;52.372;9.918;2023-10-13T00:48:41;100433.00;;;20.50
11792;BMP180;5953;52.372;9.918;2023-10-13T00:51:13;100427.00;;;20.60
11792;BMP180;5953;52.372;9.918;2023-10-13T00:54:00;100425.00;;;20.60
11792;BMP180;5953;52.372;9.918;2023-10-13T00:56:34;100424.00;;;20.60
11792;BMP180;5953;52.372;9.918;2023-10-13T00:59:10;100433.00;;;20.50
11792;BMP180;5953;52.372;9.918;2023-10-13T01:01:40;100422.00;;;20.60
11792;BMP180;5953;52.372;9.918;2023-10-13T01:04:10;100424.00;;;20.60
11792;BMP180;5953;52.372;9.918;2023-10-13T01:06:41;100414.00;;;20.70
11792;BMP180;5953;52.372;9.918;2023-10-13T01:09:09;100419.00;;;20.70
11792;BMP180;5953;52.372;9.918;2023-10-13T01:11:44;100419.00;;;20.70
11792;BMP180;5953;52.372;9.918;2023-10-13T01:14:11;100414.00;;;20.80
11792;BMP180;5953;52.372;9.918;2023-10-13T01:16:41;100411.00;;;20.70
11792;BMP180;5953;52.372;9.918;2023-10-13T01:19:11;100420.00;;;20.60
11792;BMP180;5953;52.372;9.918;2023-10-13T01:21:47;100418.00;;;20.60
11792;BMP180;5953;52.372;9.918;2023-10-13T01:24:17;100413.00;;;20.80
11792;BMP180;5953;52.372;9.918;2023-10-13T01:26:52;100410.00;;;20.90
11792;BMP180;5953;52.372;9.918;2023-10-13T01:29:20;100420.00;;;20.90
11792;BMP180;5953;52.372;9.918;2023-10-13T01:31:52;100405.00;;;20.90
11792;BMP180;5953;52.372;9.918;2023-10-13T01:34:21;100401.00;;;21.00
11792;BMP180;5953;52.372;9.918;2023-10-13T01:36:49;100400.00;;;21.00
11792;BMP180;5953;52.372;9.918;2023-10-13T01:39:20;100408.00;;;21.10
11792;BMP180;5953;52.372;9.918;2023-10-13T01:41:48;100394.00;;;21.00
11792;BMP180;5953;52.372;9.918;2023-10-13T01:44:22;100394.00;;;20.90
11792;BMP180;5953;52.372;9.918;2023-10-13T01:46:48;100392.00;;;20.70
11792;BMP180;5953;52.372;9.918;2023-10-13T01:49:18;100386.00;;;20.90
11792;BMP180;5953;52.372;9.918;2023-10-13T01:51:48;100379.00;;;20.90
11792;BMP180;5953;52.372;9.918;2023-10-13T01:54:15;100378.00;;;21.00
11792;BMP180;5953;52.372;9.918;2023-10-13T01:56:44;100380.00;;;21.20
11792;BMP180;5953;52.372;9.918;2023-10-13T01:59:11;100385.00;;;21.10
11792;BMP180;5953;52.372;9.918;2023-10-13T02:01:40;100380.00;;;21.10
11792;BMP180;5953;52.372;9.918;2023-10-13T02:04:08;100377.00;;;21.10
11792;BMP180;5953;52.372;9.918;2023-10-13T02:06:41;100365.00;;;21.10
11792;BMP180;5953;52.372;9.918;2023-10-13T02:09:09;100373.00;;;21.10
11792;BMP180;5953;52.372;9.918;2023-10-13T02:11:40;100368.00;;;21.10
11792;BMP180;5953;52.372;9.918;2023-10-13T02:14:09;100375.00;;;21.20
11792;BMP180;5953;52.372;9.918;2023-10-13T02:16:39;100375.00;;;21.20
11792;BMP180;5953;52.372;9.918;2023-10-13T02:19:06;100350.00;;;21.20
11792;BMP180;5953;52.372;9.918;2023-10-13T02:21:35;100359.00;;;21.20
11792;BMP180;5953;52.372;9.918;2023-10-13T02:24:06;100363.00;;;21.20
11792;BMP180;5953;52.372;9.918;2023-10-13T02:26:40;100362.00;;;21.20
11792;BMP180;5953;52.372;9.918;2023-10-13T02:29:07;100359.00;;;21.10
11792;BMP180;5953;52.372;9.918;2023-10-13T02:31:39;100347.00;;;21.20
11792;BMP180;5953;52.372;9.918;2023-10-13T02:34:07;100355.00;;;21.20
11792;BMP180;5953;52.372;9.918;2023-10-13T02:36:38;100354.00;;;21.20
11792;BMP180;5953;52.372;9.918;2023-10-13T02:39:14;100351.00;;;21.20
11792;BMP180;5953;52.372;9.918;2023-10-13T02:41:43;100352.00;;;21.10
11792;BMP180;5953;52.372;9.918;2023-10-13T02:44:14;100344.00;;;21.10
11792;BMP180;5953;52.372;9.918;2023-10-13T02:46:54;100336.00;;;21.10
11792;BMP180;5953;52.372;9.918;2023-10-13T02:49:24;100335.00;;;21.10
11792;BMP180;5953;52.372;9.918;2023-10-13T02:51:53;100325.00;;;21.20
11792;BMP180;5953;52.372;9.918;2023-10-13T02:54:22;100326.00;;;21.10
11792;BMP180;5953;52.372;9.918;2023-10-13T02:56:57;100337.00;;;21.10
11792;BMP180;5953;52.372;9.918;2023-10-13T02:59:30;100321.00;;;21.10
11792;BMP180;5953;52.372;9.918;2023-10-13T03:02:08;100332.00;;;21.10
11792;BMP180;5953;52.372;9.918;2023-10-13T03:04:50;100317.00;;;21.10
11792;BMP180;5953;52.372;9.918;2023-10-13T03:07:18;100307.00;;;21.00
11792;BMP180;5953;52.372;9.918;2023-10-13T03:09:50;100301.00;;;21.00
11792;BMP180;5953;52.372;9.918;2023-10-13T03:12:18;100301.00;;;20.90
11792;BMP180;5953;52.372;9.918;2023-10-13T03:14:46;100313.00;;;21.00
11792;BMP180;5953;52.372;9.918;2023-10-13T03:17:15;100314.00;;;21.00
11792;BMP180;5953;52.372;9.918;2023-10-13T03:19:46;100296.00;;;20.90
11792;BMP180;5953;52.372;9.918;2023-10-13T03:22:17;100303.00;;;21.00
11792;BMP180;5953;52.372;9.918;2023-10-13T03:24:57;100291.00;;;21.00
11792;BMP180;5953;52.372;9.918;2023-10-13T03:27:26;100285.00;;;20.80
11792;BMP180;5953;52.372;9.918;2023-10-13T03:30:07;100284.00;;;21.00
11792;BMP180;5953;52.372;9.918;2023-10-13T03:32:41;100287.00;;;21.00
11792;BMP180;5953;52.372;9.918;2023-10-13T03:35:15;100282.00;;;20.90
11792;BMP180;5953;52.372;9.918;2023-10-13T03:37:50;100280.00;;;21.00
11792;BMP180;5953;52.372;9.918;2023-10-13T03:40:19;100277.00;;;20.90
11792;BMP180;5953;52.372;9.918;2023-10-13T03:43:01;100262.00;;;21.00
11792;BMP180;5953;52.372;9.918;2023-10-13T03:45:33;100274.00;;;21.00
11792;BMP180;5953;52.372;9.918;2023-10-13T03:48:06;100266.00;;;20.90
11792;BMP180;5953;52.372;9.918;2023-10-13T03:50:39;100254.00;;;20.90
11792;BMP180;5953;52.372;9.918;2023-10-13T03:53:13;100258.00;;;21.00
11792;BMP180;5953;52.372;9.918;2023-10-13T03:55:41;100266.00;;;21.00
11792;BMP180;5953;52.372;9.918;2023-10-13T03:58:15;100267.00;;;20.80
11792;BMP180;5953;52.372;9.918;2023-10-13T04:00:43;100257.00;;;20.90
11792;BMP180;5953;52.372;9.918;2023-10-13T04:03:13;100254.00;;;21.00
11792;BMP180;5953;52.372;9.918;2023-10-13T04:05:44;100256.00;;;21.00
11792;BMP180;5953;52.372;9.918;2023-10-13T04:08:28;100259.00;;;20.90
11792;BMP180;5953;52.372;9.918;2023-10-13T04:11:15;100247.00;;;21.00
11792;BMP180;5953;52.372;9.918;2023-10-13T04:14:01;100252.00;;;21.10
11792;BMP180;5953;52.372;9.918;2023-10-13T04:16:50;100252.00;;;21.10
11792;BMP180;5953;52.372;9.918;2023-10-13T04:19:23;100249.00;;;20.90
11792;BMP180;5953;52.372;9.918;2023-10-13T04:21:51;100242.00;;;20.90
11792;BMP180;5953;52.372;9.918;2023-10-13T04:24:28;100246.00;;;20.80
11792;BMP180;5953;52.372;9.918;2023-10-13T04:27:13;100233.00;;;20.90
11792;BMP180;5953;52.372;9.918;2023-10-13T04:29:59;100232.00;;;21.00
11792;BMP180;5953;52.372;9.918;2023-10-13T04:32:38;100233.00;;;21.00
11792;BMP180;5953;52.372;9.918;2023-10-13T04:35:10;100236.00;;;21.10
11792;BMP180;5953;52.372;9.918;2023-10-13T04:37:44;100225.00;;;21.10
11792;BMP180;5953;52.372;9.918;2023-10-13T04:40:18;100218.00;;;21.10
11792;BMP180;5953;52.372;9.918;2023-10-13T04:42:51;100212.00;;;21.20
11792;BMP180;5953;52.372;9.918;2023-10-13T04:45:20;100205.00;;;21.20
11792;BMP180;5953;52.372;9.918;2023-10-13T04:48:15;100198.00;;;21.20
11792;BMP180;5953;52.372;9.918;2023-10-13T04:51:00;100193.00;;;21.30
11792;BMP180;5953;52.372;9.918;2023-10-13T04:53:42;100182.00;;;21.20
11792;BMP180;5953;52.372;9.918;2023-10-13T04:56:24;100194.00;;;21.20
11792;BMP180;5953;52.372;9.918;2023-10-13T04:59:09;100176.00;;;21.30
11792;BMP180;5953;52.372;9.918;2023-10-13T05:02:02;100186.00;;;21.30
11792;BMP180;5953;52.372;9.918;2023-10-13T05:04:47;100191.00;;;21.20
11792;BMP180;5953;52.372;9.918;2023-10-13T05:07:50;100179.00;;;21.30
11792;BMP180;5953;52.372;9.918;2023-10-13T05:10:36;100180.00;;;21.20
11792;BMP180;5953;52.372;9.918;2023-10-13T05:13:21;100183.00;;;21.10
11792;BMP180;5953;52.372;9.918;2023-10-13T05:16:07;100177.00;;;21.10
11792;BMP180;5953;52.372;9.918;2023-10-13T05:18:52;100182.00;;;21.10
11792;BMP180;5953;52.372;9.918;2023-10-13T05:21:37;100181.00;;;21.20
11792;BMP180;5953;52.372;9.918;2023-10-13T05:24:24;100174.00;;;21.20
11792;BMP180;5953;52.372;9.918;2023-10-13T05:27:10;100172.00;;;21.30
11792;BMP180;5953;52.372;9.918;2023-10-13T05:29:56;100180.00;;;21.20
11792;BMP180;5953;52.372;9.918;2023-10-13T05:32:42;100179.00;;;21.20
11792;BMP180;5953;52.372;9.918;2023-10-13T05:35:30;100175.00;;;21.00
11792;BMP180;5953;52.372;9.918;2023-10-13T05:38:16;100161.00;;;21.00
11792;BMP180;5953;52.372;9.918;2023-10-13T05:41:04;100154.00;;;21.10
11792;BMP180;5953;52.372;9.918;2023-10-13T05:43:52;100161.00;;;21.00
11792;BMP180;5953;52.372;9.918;2023-10-13T05:46:37;100161.00;;;21.00
11792;BMP180;5953;52.372;9.918;2023-10-13T05:49:28;100147.00;;;21.10
11792;BMP180;5953;52.372;9.918;2023-10-13T05:52:13;100152.00;;;21.10
11792;BMP180;5953;52.372;9.918;2023-10-13T05:55:07;100149.00;;;21.00
11792;BMP180;5953;52.372;9.918;2023-10-13T05:57:54;100146.00;;;21.10
11792;BMP180;5953;52.372;9.918;2023-10-13T06:00:41;100145.00;;;21.10
11792;BMP180;5953;52.372;9.918;2023-10-13T06:03:26;100132.00;;;20.90
11792;BMP180;5953;52.372;9.918;2023-10-13T06:06:12;100136.00;;;20.90
11792;BMP180;5953;52.372;9.918;2023-10-13T06:08:57;100127.00;;;20.90
11792;BMP180;5953;52.372;9.918;2023-10-13T06:11:44;100126.00;;;21.00
11792;BMP180;5953;52.372;9.918;2023-10-13T06:14:46;100136.00;;;20.90
11792;BMP180;5953;52.372;9.918;2023-10-13T06:17:31;100132.00;;;20.90
11792;BMP180;5953;52.372;9.918;2023-10-13T06:20:16;100145.00;;;20.90
11792;BMP180;5953;52.372;9.918;2023-10-13T06:23:02;100136.00;;;20.90
11792;BMP180;5953;52.372;9.918;2023-10-13T06:25:50;100144.00;;;20.90
11792;BMP180;5953;52.372;9.918;2023-10-13T06:28:40;100138.00;;;20.90
11792;BMP180;5953;52.372;9.918;2023-10-13T06:31:12;100140.00;;;20.70
11792;BMP180;5953;52.372;9.918;2023-10-13T06:33:49;100131.00;;;20.80
11792;BMP180;5953;52.372;9.918;2023-10-13T06:36:17;100129.00;;;20.80
11792;BMP180;5953;52.372;9.918;2023-10-13T06:38:45;100127.00;;;20.80
11792;BMP180;5953;52.372;9.918;2023-10-13T06:41:22;100125.00;;;20.80
11792;BMP180;5953;52.372;9.918;2023-10-13T06:43:57;100123.00;;;20.80
11792;BMP180;5953;52.372;9.918;2023-10-13T06:46:29;100114.00;;;21.00
11792;BMP180;5953;52.372;9.918;2023-10-13T06:49:00;100110.00;;;20.80
11792;BMP180;5953;52.372;9.918;2023-10-13T06:51:29;100113.00;;;20.90
11792;BMP180;5953;52.372;9.918;2023-10-13T06:54:05;100112.00;;;21.00
11792;BMP180;5953;52.372;9.918;2023-10-13T06:56:37;100111.00;;;21.00
11792;BMP180;5953;52.372;9.918;2023-10-13T06:59:07;100114.00;;;21.00
11792;BMP180;5953;52.372;9.918;2023-10-13T07:01:38;100113.00;;;21.10
11792;BMP180;5953;52.372;9.918;2023-10-13T07:04:08;100114.00;;;21.00
11792;BMP180;5953;52.372;9.918;2023-10-13T07:06:41;100103.00;;;21.10
11792;BMP180;5953;52.372;9.918;2023-10-13T07:09:11;100115.00;;;21.10
11792;BMP180;5953;52.372;9.918;2023-10-13T07:12:04;100117.00;;;21.20
11792;BMP180;5953;52.372;9.918;2023-10-13T07:14:34;100100.00;;;21.10
11792;BMP180;5953;52.372;9.918;2023-10-13T07:17:05;100097.00;;;21.10
11792;BMP180;5953;52.372;9.918;2023-10-13T07:19:34;100081.00;;;21.10
11792;BMP180;5953;52.372;9.918;2023-10-13T07:22:11;100081.00;;;21.10
11792;BMP180;5953;52.372;9.918;2023-10-13T07:24:48;100080.00;;;21.10
11792;BMP180;5953;52.372;9.918;2023-10-13T07:27:16;100085.00;;;21.20
11792;BMP180;5953;52.372;9.918;2023-10-13T07:29:49;100082.00;;;21.20
11792;BMP180;5953;52.372;9.918;2023-10-13T07:32:24;100070.00;;;21.20
11792;BMP180;5953;52.372;9.918;2023-10-13T07:34:53;100073.00;;;21.30
11792;BMP180;5953;52.372;9.918;2023-10-13T07:37:24;100058.00;;;21.30
11792;BMP180;5953;52.372;9.918;2023-10-13T07:39:56;100063.00;;;21.20
11792;BMP180;5953;52.372;9.918;2023-10-13T07:42:25;100062.00;;;21.30
11792;BMP180;5953;52.372;9.918;2023-10-13T07:44:58;100049.00;;;21.30
11792;BMP180;5953;52.372;9.918;2023-10-13T07:47:27;100030.00;;;21.40
11792;BMP180;5953;52.372;9.918;2023-10-13T07:49:55;100030.00;;;21.20
11792;BMP180;5953;52.372;9.918;2023-10-13T07:52:23;100016.00;;;21.30
11792;BMP180;5953;52.372;9.918;2023-10-13T07:55:03;100012.00;;;21.40
11792;BMP180;5953;52.372;9.918;2023-10-13T07:57:47;100019.00;;;21.50
11792;BMP180;5953;52.372;9.918;2023-10-13T08:00:22;100016.00;;;21.50
11792;BMP180;5953;52.372;9.918;2023-10-13T08:02:58;100001.00;;;21.50
11792;BMP180;5953;52.372;9.918;2023-10-13T08:05:39;100008.00;;;21.60
11792;BMP180;5953;52.372;9.918;2023-10-13T08:08:23;100009.00;;;21.50
11792;BMP180;5953;52.372;9.918;2023-10-13T08:10:52;99993.00;;;21.40
11792;BMP180;5953;52.372;9.918;2023-10-13T08:13:22;100001.00;;;21.30
11792;BMP180;5953;52.372;9.918;2023-10-13T08:15:50;99999.00;;;21.30
11792;BMP180;5953;52.372;9.918;2023-10-13T08:18:21;99984.00;;;21.30
11792;BMP180;5953;52.372;9.918;2023-10-13T08:20:57;99998.00;;;21.20
11792;BMP180;5953;52.372;9.918;2023-10-13T08:23:30;99998.00;;;21.20
11792;BMP180;5953;52.372;9.918;2023-10-13T08:26:18;100006.00;;;21.40
11792;BMP180;5953;52.372;9.918;2023-10-13T08:29:18;100002.00;;;21.50
11792;BMP180;5953;52.372;9.918;2023-10-13T08:32:04;100001.00;;;21.40
11792;BMP180;5953;52.372;9.918;2023-10-13T08:34:48;99992.00;;;21.30
11792;BMP180;5953;52.372;9.918;2023-10-13T08:37:36;99979.00;;;21.30
11792;BMP180;5953;52.372;9.918;2023-10-13T08:40:23;99990.00;;;21.50
11792;BMP180;5953;52.372;9.918;2023-10-13T08:43:11;99991.00;;;21.10
11792;BMP180;5953;52.372;9.918;2023-10-13T08:45:39;99987.00;;;21.30
11792;BMP180;5953;52.372;9.918;2023-10-13T08:48:26;99986.00;;;21.50
11792;BMP180;5953;52.372;9.918;2023-10-13T08:51:03;99979.00;;;21.40
11792;BMP180;5953;52.372;9.918;2023-10-13T08:53:38;99979.00;;;21.60
11792;BMP180;5953;52.372;9.918;2023-10-13T08:56:18;99989.00;;;21.50
11792;BMP180;5953;52.372;9.918;2023-10-13T08:58:59;100000.00;;;21.80
11792;BMP180;5953;52.372;9.918;2023-10-13T09:01:34;99987.00;;;21.80
11792;BMP180;5953;52.372;9.918;2023-10-13T09:04:02;99989.00;;;21.90
11792;BMP180;5953;52.372;9.918;2023-10-13T09:06:48;99991.00;;;21.90
11792;BMP180;5953;52.372;9.918;2023-10-13T09:09:31;99994.00;;;22.10
11792;BMP180;5953;52.372;9.918;2023-10-13T09:12:10;99994.00;;;22.10
11792;BMP180;5953;52.372;9.918;2023-10-13T09:14:39;100006.00;;;22.00
11792;BMP180;5953;52.372;9.918;2023-10-13T09:17:11;100006.00;;;22.10
11792;BMP180;5953;52.372;9.918;2023-10-13T09:19:47;99989.00;;;22.00
11792;BMP180;5953;52.372;9.918;2023-10-13T09:22:22;99991.00;;;22.10
11792;BMP180;5953;52.372;9.918;2023-10-13T09:24:55;99990.00;;;22.30
11792;BMP180;5953;52.372;9.918;2023-10-13T09:27:25;99978.00;;;22.00
11792;BMP180;5953;52.372;9.918;2023-10-13T09:29:57;99972.00;;;22.30
11792;BMP180;5953;52.372;9.918;2023-10-13T09:32:32;99980.00;;;22.40
11792;BMP180;5953;52.372;9.918;2023-10-13T09:35:11;99963.00;;;22.40
11792;BMP180;5953;52.372;9.918;2023-10-13T09:37:44;99949.00;;;22.30
11792;BMP180;5953;52.372;9.918;2023-10-13T09:40:16;99949.00;;;22.50
11792;BMP180;5953;52.372;9.918;2023-10-13T09:42:53;99951.00;;;22.50
11792;BMP180;5953;52.372;9.918;2023-10-13T09:45:28;99937.00;;;22.70
11792;BMP180;5953;52.372;9.918;2023-10-13T09:48:01;99920.00;;;22.70
11792;BMP180;5953;52.372;9.918;2023-10-13T09:50:36;99912.00;;;22.70
11792;BMP180;5953;52.372;9.918;2023-10-13T09:53:10;99917.00;;;22.90
11792;BMP180;5953;52.372;9.918;2023-10-13T09:55:44;99915.00;;;22.80
11792;BMP180;5953;52.372;9.918;2023-10-13T09:58:13;99896.00;;;22.90
11792;BMP180;5953;52.372;9.918;2023-10-13T10:00:47;99894.00;;;23.00
11792;BMP180;5953;52.372;9.918;2023-10-13T10:03:22;99889.00;;;23.10
11792;BMP180;5953;52.372;9.918;2023-10-13T10:06:06;99881.00;;;23.30
11792;BMP180;5953;52.372;9.918;2023-10-13T10:08:44;99886.00;;;23.30
11792;BMP180;5953;52.372;9.918;2023-10-13T10:14:33;99875.00;;;23.00
11792;BMP180;5953;52.372;9.918;2023-10-13T10:17:06;99865.00;;;23.20
11792;BMP180;5953;52.372;9.918;2023-10-13T10:19:47;99867.00;;;23.40
11792;BMP180;5953;52.372;9.918;2023-10-13T10:22:25;99860.00;;;23.60
11792;BMP180;5953;52.372;9.918;2023-10-13T10:24:58;99851.00;;;23.60
11792;BMP180;5953;52.372;9.918;2023-10-13T10:27:27;99853.00;;;23.70
11792;BMP180;5953;52.372;9.918;2023-10-13T10:29:56;99837.00;;;23.60
11792;BMP180;5953;52.372;9.918;2023-10-13T10:32:34;99841.00;;;23.60
11792;BMP180;5953;52.372;9.918;2023-10-13T10:35:06;99829.00;;;23.70
11792;BMP180;5953;52.372;9.918;2023-10-13T10:37:36;99833.00;;;23.80
11792;BMP180;5953;52.372;9.918;2023-10-13T10:40:09;99820.00;;;24.00
11792;BMP180;5953;52.372;9.918;2023-10-13T10:42:50;99842.00;;;23.80
11792;BMP180;5953;52.372;9.918;2023-10-13T10:45:19;99826.00;;;23.90
11792;BMP180;5953;52.372;9.918;2023-10-13T10:47:49;99820.00;;;24.00
11792;BMP180;5953;52.372;9.918;2023-10-13T10:50:25;99809.00;;;23.90
11792;BMP180;5953;52.372;9.918;2023-10-13T10:53:04;99801.00;;;24.00
11792;BMP180;5953;52.372;9.918;2023-10-13T10:55:37;99807.00;;;23.70
11792;BMP180;5953;52.372;9.918;2023-10-13T10:58:05;99796.00;;;24.10
11792;BMP180;5953;52.372;9.918;2023-10-13T11:00:34;99791.00;;;24.30
11792;BMP180;5953;52.372;9.918;2023-10-13T11:03:13;99787.00;;;24.20
11792;BMP180;5953;52.372;9.918;2023-10-13T11:05:45;99778.00;;;24.30
11792;BMP180;5953;52.372;9.918;2023-10-13T11:08:23;99771.00;;;24.40
11792;BMP180;5953;52.372;9.918;2023-10-13T11:10:59;99760.00;;;24.50
11792;BMP180;5953;52.372;9.918;2023-10-13T11:13:40;99776.00;;;24.70
11792;BMP180;5953;52.372;9.918;2023-10-13T11:16:20;99762.00;;;24.80
11792;BMP180;5953;52.372;9.918;2023-10-13T11:19:00;99761.00;;;24.70
11792;BMP180;5953;52.372;9.918;2023-10-13T11:21:29;99763.00;;;24.60
11792;BMP180;5953;52.372;9.918;2023-10-13T11:23:58;99773.00;;;24.80
11792;BMP180;5953;52.372;9.918;2023-10-13T11:26:36;99768.00;;;24.90
11792;BMP180;5953;52.372;9.918;2023-10-13T11:29:16;99769.00;;;25.00
11792;BMP180;5953;52.372;9.918;2023-10-13T11:31:47;99776.00;;;25.10
11792;BMP180;5953;52.372;9.918;2023-10-13T11:34:21;99759.00;;;25.30
11792;BMP180;5953;52.372;9.918;2023-10-13T11:36:49;99756.00;;;25.20
11792;BMP180;5953;52.372;9.918;2023-10-13T11:39:17;99748.00;;;25.30
11792;BMP180;5953;52.372;9.918;2023-10-13T11:41:52;99755.00;;;25.30
11792;BMP180;5953;52.372;9.918;2023-10-13T11:44:21;99743.00;;;25.30
11792;BMP180;5953;52.372;9.918;2023-10-13T11:46:57;99738.00;;;25.40
11792;BMP180;5953;52.372;9.918;2023-10-13T11:49:43;99728.00;;;25.30
11792;BMP180;5953;52.372;9.918;2023-10-13T11:52:11;99735.00;;;25.40
11792;BMP180;5953;52.372;9.918;2023-10-13T11:54:52;99721.00;;;25.00
11792;BMP180;5953;52.372;9.918;2023-10-13T11:57:21;99724.00;;;25.30
11792;BMP180;5953;52.372;9.918;2023-10-13T11:59:49;99733.00;;;25.50
11792;BMP180;5953;52.372;9.918;2023-10-13T12:02:43;99713.00;;;25.10
11792;BMP180;5953;52.372;9.918;2023-10-13T12:05:28;99712.00;;;25.60
11792;BMP180;5953;52.372;9.918;2023-10-13T12:08:15;99716.00;;;25.40
11792;BMP180;5953;52.372;9.918;2023-10-13T12:10:49;99703.00;;;25.80
11792;BMP180;5953;52.372;9.918;2023-10-13T12:13:28;99703.00;;;25.80
11792;BMP180;5953;52.372;9.918;2023-10-13T12:15:56;99701.00;;;25.50
11792;BMP180;5953;52.372;9.918;2023-10-13T12:18:24;99695.00;;;25.50
11792;BMP180;5953;52.372;9.918;2023-10-13T12:20:54;99697.00;;;26.00
11792;BMP180;5953;52.372;9.918;2023-10-13T12:23:23;99685.00;;;25.60
11792;BMP180;5953;52.372;9.918;2023-10-13T12:25:58;99675.00;;;25.90
11792;BMP180;5953;52.372;9.918;2023-10-13T12:28:29;99677.00;;;25.70
11792;BMP180;5953;52.372;9.918;2023-10-13T12:31:03;99674.00;;;25.80
11792;BMP180;5953;52.372;9.918;2023-10-13T12:33:34;99675.00;;;26.00
11792;BMP180;5953;52.372;9.918;2023-10-13T12:36:07;99671.00;;;26.20
11792;BMP180;5953;52.372;9.918;2023-10-13T12:38:41;99664.00;;;25.90
11792;BMP180;5953;52.372;9.918;2023-10-13T12:41:38;99651.00;;;26.00
11792;BMP180;5953;52.372;9.918;2023-10-13T12:44:25;99652.00;;;26.10
11792;BMP180;5953;52.372;9.918;2023-10-13T12:47:11;99655.00;;;26.30
11792;BMP180;5953;52.372;9.918;2023-10-13T12:50:03;99638.00;;;25.90
11792;BMP180;5953;52.372;9.918;2023-10-13T12:52:50;99642.00;;;25.80
11792;BMP180;5953;52.372;9.918;2023-10-13T12:55:18;99647.00;;;26.30
11792;BMP180;5953;52.372;9.918;2023-10-13T12:57:51;99624.00;;;26.10
11792;BMP180;5953;52.372;9.918;2023-10-13T13:00:20;99622.00;;;26.00
11792;BMP180;5953;52.372;9.918;2023-10-13T13:02:50;99613.00;;;25.70
11792;BMP180;5953;52.372;9.918;2023-10-13T13:05:22;99624.00;;;26.10
11792;BMP180;5953;52.372;9.918;2023-10-13T13:07:55;99613.00;;;26.10
11792;BMP180;5953;52.372;9.918;2023-10-13T13:10:23;99615.00;;;26.10
11792;BMP180;5953;52.372;9.918;2023-10-13T13:13:03;99608.00;;;26.20
11792;BMP180;5953;52.372;9.918;2023-10-13T13:15:33;99613.00;;;25.90
11792;BMP180;5953;52.372;9.918;2023-10-13T13:18:01;99614.00;;;26.10
11792;BMP180;5953;52.372;9.918;2023-10-13T13:20:37;99610.00;;;26.10
11792;BMP180;5953;52.372;9.918;2023-10-13T13:23:10;99610.00;;;26.10
11792;BMP180;5953;52.372;9.918;2023-10-13T13:25:42;99599.00;;;26.30
11792;BMP180;5953;52.372;9.918;2023-10-13T13:28:10;99600.00;;;26.10
11792;BMP180;5953;52.372;9.918;2023-10-13T13:30:40;99604.00;;;26.30
11792;BMP180;5953;52.372;9.918;2023-10-13T13:33:08;99607.00;;;26.20
11792;BMP180;5953;52.372;9.918;2023-10-13T13:35:39;99595.00;;;26.20
11792;BMP180;5953;52.372;9.918;2023-10-13T13:38:09;99596.00;;;26.50
11792;BMP180;5953;52.372;9.918;2023-10-13T13:40:48;99579.00;;;26.50
11792;BMP180;5953;52.372;9.918;2023-10-13T13:43:21;99587.00;;;26.60
11792;BMP180;5953;52.372;9.918;2023-10-13T13:46:19;99582.00;;;26.50
11792;BMP180;5953;52.372;9.918;2023-10-13T13:48:51;99560.00;;;26.40
11792;BMP180;5953;52.372;9.918;2023-10-13T13:51:25;99564.00;;;26.70
11792;BMP180;5953;52.372;9.918;2023-10-13T13:53:54;99557.00;;;26.60
11792;BMP180;5953;52.372;9.918;2023-10-13T13:56:23;99551.00;;;26.60
11792;BMP180;5953;52.372;9.918;2023-10-13T13:58:54;99562.00;;;26.30
11792;BMP180;5953;52.372;9.918;2023-10-13T14:01:24;99565.00;;;26.60
11792;BMP180;5953;52.372;9.918;2023-10-13T14:03:53;99556.00;;;26.60
11792;BMP180;5953;52.372;9.918;2023-10-13T14:06:24;99563.00;;;26.70
11792;BMP180;5953;52.372;9.918;2023-10-13T14:08:54;99554.00;;;26.70
11792;BMP180;5953;52.372;9.918;2023-10-13T14:11:24;99551.00;;;26.90
11792;BMP180;5953;52.372;9.918;2023-10-13T14:14:11;99550.00;;;26.70
11792;BMP180;5953;52.372;9.918;2023-10-13T14:16:57;99541.00;;;27.00
11792;BMP180;5953;52.372;9.918;2023-10-13T14:19:34;99533.00;;;27.00
11792;BMP180;5953;52.372;9.918;2023-10-13T14:22:07;99531.00;;;27.00
11792;BMP180;5953;52.372;9.918;2023-10-13T14:24:38;99539.00;;;27.10
11792;BMP180;5953;52.372;9.918;2023-10-13T14:27:13;99514.00;;;27.10
11792;BMP180;5953;52.372;9.918;2023-10-13T14:29:44;99532.00;;;26.70
11792;BMP180;5953;52.372;9.918;2023-10-13T14:32:15;99526.00;;;26.90
11792;BMP180;5953;52.372;9.918;2023-10-13T14:34:44;99524.00;;;26.90
11792;BMP180;5953;52.372;9.918;2023-10-13T14:37:12;99525.00;;;26.90
11792;BMP180;5953;52.372;9.918;2023-10-13T14:39:40;99516.00;;;27.20
11792;BMP180;5953;52.372;9.918;2023-10-13T14:42:08;99519.00;;;27.00
11792;BMP180;5953;52.372;9.918;2023-10-13T14:44:36;99521.00;;;27.10
11792;BMP180;5953;52.372;9.918;2023-10-13T14:47:04;99514.00;;;27.00
11792;BMP180;5953;52.372;9.918;2023-10-13T14:49:37;99519.00;;;27.10
11792;BMP180;5953;52.372;9.918;2023-10-13T14:52:04;99521.00;;;27.00
11792;BMP180;5953;52.372;9.918;2023-10-13T14:54:32;99514.00;;;27.10
11792;BMP180;5953;52.372;9.918;2023-10-13T14:57:00;99511.00;;;27.00
11792;BMP180;5953;52.372;9.918;2023-10-13T14:59:29;99508.00;;;27.20
11792;BMP180;5953;52.372;9.918;2023-10-13T15:02:00;99506.00;;;26.90
11792;BMP180;5953;52.372;9.918;2023-10-13T15:04:30;99511.00;;;27.00